createdAt,value
2019-05-22T02:39:39.865Z,97174.08
2019-05-22T02:42:12.332Z,97185.95
2019-05-22T02:44:39.841Z,97185.15
2019-05-22T02:47:19.086Z,97194.98
2019-05-22T02:49:38.382Z,97191.75
2019-05-22T02:52:07.964Z,97193.42
2019-05-22T02:54:35.216Z,97191.25
2019-05-22T02:57:03.019Z,97195.94
2019-05-22T02:59:30.486Z,97197.31
2019-05-22T03:01:57.942Z,97203.30
2019-05-22T03:04:27.113Z,97198.42
2019-05-22T03:06:54.469Z,97206.08
2019-05-22T03:09:26.051Z,97204.21
2019-05-22T03:12:00.656Z,97212.47
2019-05-22T03:14:28.453Z,97214.05
2019-05-22T03:16:57.606Z,97215.41
2019-05-22T03:19:32.907Z,97219.23
2019-05-22T03:22:00.525Z,97220.60
2019-05-22T03:24:28.146Z,97218.43
2019-05-22T03:26:55.205Z,97220.90
2019-05-22T03:29:31.630Z,97219.53
2019-05-22T03:31:59.517Z,97223.16
2019-05-22T03:34:26.524Z,97230.84
2019-05-22T03:36:53.276Z,97231.41
2019-05-22T03:39:21.210Z,97233.91
2019-05-22T03:41:49.109Z,97230.34
2019-05-22T03:44:16.651Z,97234.20
2019-05-22T03:46:45.568Z,97241.27
2019-05-22T03:49:29.054Z,97246.46
2019-05-22T03:51:46.292Z,97237.73
2019-05-22T03:54:13.665Z,97241.02
2019-05-22T03:56:41.725Z,97243.70
2019-05-22T03:59:08.610Z,97243.95
2019-05-22T04:01:35.769Z,97247.23
2019-05-22T04:04:06.620Z,97249.48
2019-05-22T04:06:34.697Z,97247.31
2019-05-22T04:09:16.713Z,97256.88
2019-05-22T04:11:45.756Z,97259.02
2019-05-22T04:14:12.676Z,97254.42
2019-05-22T04:16:40.094Z,97255.23
2019-05-22T04:19:07.140Z,97263.70
2019-05-22T04:21:34.820Z,97271.31
2019-05-22T04:24:02.098Z,97275.66
2019-05-22T04:26:28.944Z,97274.59
2019-05-22T04:28:56.303Z,97282.76
2019-05-22T04:31:45.282Z,97286.59
2019-05-22T04:34:12.054Z,97283.86
2019-05-22T04:36:39.536Z,97282.25
2019-05-22T04:39:12.226Z,97279.56
2019-05-22T04:41:40.055Z,97278.75
2019-05-22T04:44:07.014Z,97280.92
2019-05-22T04:46:33.845Z,97281.77
2019-05-22T04:49:01.335Z,97288.84
2019-05-22T04:51:30.463Z,97286.37
2019-05-22T04:53:57.508Z,97289.94
2019-05-22T04:56:24.873Z,97297.59
2019-05-22T04:58:52.649Z,97297.30
2019-05-22T05:01:20.482Z,97295.42
2019-05-22T05:03:47.302Z,97297.05
2019-05-22T05:06:14.238Z,97297.08
2019-05-22T05:08:40.965Z,97297.05
2019-05-22T05:11:08.538Z,97298.66
2019-05-22T05:13:35.120Z,97296.49
2019-05-22T05:16:02.211Z,97298.41
2019-05-22T05:18:29.265Z,97307.34
2019-05-22T05:20:56.103Z,97304.36
2019-05-22T05:23:22.869Z,97305.47
2019-05-22T05:25:49.429Z,97313.89
2019-05-22T05:28:16.428Z,97312.80
2019-05-22T05:30:43.421Z,97317.65
2019-05-22T05:33:10.962Z,97309.73
2019-05-22T05:35:37.915Z,97310.84
2019-05-22T05:38:05.109Z,97320.67
2019-05-22T05:40:38.545Z,97326.70
2019-05-22T05:43:06.555Z,97329.39
2019-05-22T05:45:34.169Z,97329.61
2019-05-22T05:48:03.639Z,97333.14
2019-05-22T05:50:39.690Z,97334.21
2019-05-22T05:53:05.649Z,97338.84
2019-05-22T05:56:16.112Z,97342.38
2019-05-22T05:58:43.053Z,97339.66
2019-05-22T06:01:38.159Z,97345.91
2019-05-22T06:04:05.822Z,97347.28
2019-05-22T06:07:15.166Z,97344.30
2019-05-22T06:09:41.948Z,97345.66
2019-05-22T06:12:11.273Z,97344.03
2019-05-22T06:14:40.599Z,97347.83
2019-05-22T06:17:56.942Z,97347.57
2019-05-22T06:20:24.355Z,97352.47
2019-05-22T06:23:47.747Z,97357.10
2019-05-22T06:26:59.283Z,97368.00
2019-05-22T06:29:32.294Z,97368.84
2019-05-22T06:32:42.392Z,97366.93
2019-05-22T06:35:11.325Z,97372.60
2019-05-22T06:38:07.190Z,97370.98
2019-05-22T06:40:34.122Z,97378.34
2019-05-22T06:43:58.560Z,97384.59
2019-05-22T06:46:45.271Z,97390.30
2019-05-22T06:49:37.835Z,97395.72
2019-05-22T06:52:05.646Z,97394.61
2019-05-22T06:54:32.378Z,97404.15
2019-05-22T06:56:59.149Z,97406.25
2019-05-22T06:59:25.996Z,97411.11
2019-05-22T07:02:01.508Z,97412.15
2019-05-22T07:04:23.193Z,97417.08
2019-05-22T07:06:50.340Z,97407.84
2019-05-22T07:09:18.479Z,97419.51
2019-05-22T07:11:46.100Z,97419.22
2019-05-22T07:14:13.303Z,97421.23
2019-05-22T07:16:40.749Z,97418.44
2019-05-22T07:19:09.446Z,97426.58
2019-05-22T07:21:36.123Z,97425.52
2019-05-22T07:24:03.704Z,97427.94
2019-05-22T07:26:31.969Z,97428.45
2019-05-22T07:29:02.728Z,97432.58
2019-05-22T07:31:27.714Z,97431.25
2019-05-22T07:33:54.772Z,97432.03
2019-05-22T07:36:21.742Z,97428.75
2019-05-22T07:38:48.588Z,97427.91
2019-05-22T07:41:15.274Z,97427.36
2019-05-22T07:43:42.650Z,97432.77
2019-05-22T07:46:09.469Z,97431.92
2019-05-22T07:48:36.720Z,97435.16
2019-05-22T07:51:04.101Z,97435.42
2019-05-22T07:53:31.340Z,97441.94
2019-05-22T07:55:58.819Z,97440.31
2019-05-22T07:58:27.207Z,97441.72
2019-05-22T08:00:56.615Z,97442.78
2019-05-22T08:03:24.391Z,97438.36
2019-05-22T08:05:53.049Z,97438.88
2019-05-22T08:08:20.079Z,97442.48
2019-05-22T08:10:46.920Z,97439.47
2019-05-22T08:13:13.959Z,97445.47
2019-05-22T08:15:40.618Z,97439.25
2019-05-22T08:18:07.853Z,97442.75
2019-05-22T08:20:34.990Z,97452.03
2019-05-22T08:23:01.958Z,97447.97
2019-05-22T08:25:29.543Z,97448.49
2019-05-22T08:27:57.440Z,97453.68
2019-05-22T08:30:24.430Z,97455.59
2019-05-22T08:32:52.225Z,97455.86
2019-05-22T08:35:19.500Z,97459.95
2019-05-22T08:37:47.492Z,97463.52
2019-05-22T08:40:17.023Z,97461.38
2019-05-22T08:42:43.810Z,97465.47
2019-05-22T08:45:11.515Z,97469.55
2019-05-22T08:47:38.666Z,97475.30
2019-05-22T08:50:06.225Z,97468.19
2019-05-22T08:52:33.093Z,97482.11
2019-05-22T08:55:01.123Z,97476.42
2019-05-22T08:57:29.440Z,97484.31
2019-05-22T08:59:56.804Z,97483.79
2019-05-22T09:02:23.847Z,97487.03
2019-05-22T09:04:50.740Z,97490.60
2019-05-22T09:07:19.370Z,97488.98
2019-05-22T09:09:46.263Z,97496.02
2019-05-22T09:12:13.771Z,97502.05
2019-05-22T09:14:41.778Z,97493.59
2019-05-22T09:17:10.951Z,97503.61
2019-05-22T09:19:38.019Z,97496.50
2019-05-22T09:22:06.661Z,97498.64
2019-05-22T09:24:33.910Z,97492.06
2019-05-22T09:27:02.978Z,97500.75
2019-05-22T09:29:30.051Z,97504.80
2019-05-22T09:31:57.151Z,97499.58
2019-05-22T09:34:23.964Z,97494.65
2019-05-22T09:36:50.976Z,97503.86
2019-05-22T09:39:18.023Z,97505.97
2019-05-22T09:41:45.067Z,97503.47
2019-05-22T09:44:15.183Z,97508.03
2019-05-22T09:46:40.820Z,97504.23
2019-05-22T09:49:09.902Z,97512.67
2019-05-22T09:51:37.290Z,97516.44
2019-05-22T09:54:04.852Z,97523.19
2019-05-22T09:56:31.637Z,97522.89
2019-05-22T09:58:58.441Z,97531.03
2019-05-22T10:01:25.483Z,97530.26
2019-05-22T10:03:52.185Z,97537.63
2019-05-22T10:06:21.656Z,97535.23
2019-05-22T10:08:48.529Z,97541.23
2019-05-22T10:11:15.236Z,97556.78
2019-05-22T10:13:42.159Z,97551.36
2019-05-22T10:16:09.167Z,97563.92
2019-05-22T10:18:36.552Z,97557.36
2019-05-22T10:21:03.544Z,97558.44
2019-05-22T10:23:30.333Z,97557.03
2019-05-22T10:25:59.877Z,97564.08
2019-05-22T10:28:27.447Z,97562.72
2019-05-22T10:30:55.476Z,97563.27
2019-05-22T10:33:23.135Z,97566.35
2019-05-22T10:35:51.208Z,97565.80
2019-05-22T10:38:18.343Z,97569.59
2019-05-22T10:40:45.378Z,97570.05
2019-05-22T10:43:12.206Z,97566.19
2019-05-22T10:45:39.083Z,97565.86
2019-05-22T10:48:05.913Z,97569.95
2019-05-22T10:50:33.200Z,97569.40
2019-05-22T10:53:00.217Z,97562.77
2019-05-22T10:55:27.332Z,97562.41
2019-05-22T10:57:54.187Z,97559.27
2019-05-22T11:00:22.742Z,97563.77
2019-05-22T11:02:49.473Z,97549.72
2019-05-22T11:05:18.376Z,97559.33
2019-05-22T11:07:45.646Z,97556.27
2019-05-22T11:10:12.979Z,97549.36
2019-05-22T11:12:40.363Z,97561.34
2019-05-22T11:15:08.520Z,97557.03
2019-05-22T11:17:35.570Z,97557.55
2019-05-22T11:20:02.645Z,97560.80
2019-05-22T11:22:31.056Z,97561.56
2019-05-22T11:24:58.067Z,97566.55
2019-05-22T11:27:25.410Z,97565.22
2019-05-22T11:29:53.226Z,97572.90
2019-05-22T11:32:21.154Z,97573.33
2019-05-22T11:34:48.161Z,97571.77
2019-05-22T11:37:15.351Z,97570.22
2019-05-22T11:39:44.972Z,97580.39
2019-05-22T11:42:13.347Z,97586.88
2019-05-22T11:44:40.294Z,97573.69
2019-05-22T11:47:08.530Z,97577.69
2019-05-22T11:49:35.622Z,97583.62
2019-05-22T11:52:02.872Z,97582.00
2019-05-22T11:54:32.582Z,97591.26
2019-05-22T11:56:59.567Z,97595.91
2019-05-22T11:59:26.901Z,97593.73
2019-05-22T12:01:53.645Z,97597.58
2019-05-22T12:04:20.426Z,97594.03
2019-05-22T12:06:53.086Z,97593.52
2019-05-22T12:09:18.494Z,97600.61
2019-05-22T12:11:45.496Z,97602.32
2019-05-22T12:14:12.616Z,97602.58
2019-05-22T12:16:40.705Z,97602.83
2019-05-22T12:19:08.724Z,97609.91
2019-05-22T12:21:36.007Z,97604.50
2019-05-22T12:24:02.814Z,97612.14
2019-05-22T12:26:29.586Z,97607.18
2019-05-22T12:28:56.339Z,97611.88
2019-05-22T12:31:23.115Z,97615.17
2019-05-22T12:33:50.005Z,97619.95
2019-05-22T12:36:17.359Z,97621.66
2019-05-22T12:38:44.542Z,97623.95
2019-05-22T12:41:12.580Z,97626.24
2019-05-22T12:43:39.682Z,97630.64
2019-05-22T12:46:06.801Z,97630.51
2019-05-22T12:48:33.963Z,97635.01
2019-05-22T12:51:00.883Z,97632.36
2019-05-22T12:53:28.693Z,97640.32
2019-05-22T12:55:55.483Z,97637.89
2019-05-22T12:58:22.307Z,97633.80
2019-05-22T13:00:50.227Z,97634.34
2019-05-22T13:03:17.393Z,97641.50
2019-05-22T13:05:45.036Z,97641.31
2019-05-22T13:08:12.862Z,97636.41
2019-05-22T13:10:40.165Z,97643.05
2019-05-22T13:13:07.363Z,97638.14
2019-05-22T13:15:36.830Z,97634.20
2019-05-22T13:18:04.707Z,97628.16
2019-05-22T13:20:42.496Z,97627.27
2019-05-22T13:23:06.563Z,97632.09
2019-05-22T13:25:35.610Z,97628.85
2019-05-22T13:28:03.465Z,97621.95
2019-05-22T13:30:31.866Z,97618.89
2019-05-22T13:32:59.257Z,97617.73
2019-05-22T13:35:27.515Z,97618.70
2019-05-22T13:37:54.735Z,97616.39
2019-05-22T13:40:27.554Z,97613.72
2019-05-22T13:42:51.345Z,97609.11
2019-05-22T13:45:29.174Z,97617.47
2019-05-22T13:47:48.768Z,97616.00
2019-05-22T13:50:16.648Z,97617.42
2019-05-22T13:52:43.840Z,97618.77
2019-05-22T13:55:11.224Z,97614.52
2019-05-22T13:57:40.092Z,97616.84
2019-05-22T14:00:09.519Z,97615.85
2019-05-22T14:02:36.235Z,97620.77
2019-05-22T14:05:03.406Z,97623.92
2019-05-22T14:07:30.207Z,97621.38
2019-05-22T14:09:57.108Z,97624.73
2019-05-22T14:12:24.436Z,97622.81
2019-05-22T14:14:51.189Z,97627.91
2019-05-22T14:17:17.960Z,97627.17
2019-05-22T14:19:44.775Z,97625.14
2019-05-22T14:22:11.984Z,97626.61
2019-05-22T14:24:38.647Z,97631.45
2019-05-22T14:27:05.399Z,97626.19
2019-05-22T14:29:32.962Z,97617.53
2019-05-22T14:32:02.676Z,97630.04
2019-05-22T14:34:30.054Z,97629.02
2019-05-22T14:36:56.837Z,97631.03
2019-05-22T14:39:23.964Z,97630.53
2019-05-22T14:41:51.049Z,97630.06
2019-05-22T14:44:17.886Z,97624.95
2019-05-22T14:46:44.566Z,97633.00
2019-05-22T14:49:11.240Z,97635.27
2019-05-22T14:51:38.004Z,97636.67
2019-05-22T14:54:06.632Z,97637.83
2019-05-22T14:56:33.931Z,97638.98
2019-05-22T14:59:01.384Z,97640.09
2019-05-22T15:01:28.184Z,97634.20
2019-05-22T15:03:54.929Z,97638.37
2019-05-22T15:06:22.465Z,97639.73
2019-05-22T15:08:49.277Z,97644.42
2019-05-22T15:11:16.468Z,97638.20
2019-05-22T15:13:43.245Z,97642.03
2019-05-22T15:16:10.544Z,97642.08
2019-05-22T15:18:37.745Z,97651.89
2019-05-22T15:21:07.464Z,97643.14
2019-05-22T15:23:34.501Z,97646.47
2019-05-22T15:26:01.768Z,97642.11
2019-05-22T15:28:29.010Z,97645.91
2019-05-22T15:30:55.749Z,97645.06
2019-05-22T15:33:23.034Z,97643.95
2019-05-22T15:35:50.453Z,97648.86
2019-05-22T15:38:18.523Z,97650.52
2019-05-22T15:40:45.438Z,97646.64
2019-05-22T15:43:13.526Z,97647.20
2019-05-22T15:45:41.156Z,97648.52
2019-05-22T15:48:12.477Z,97644.69
2019-05-22T15:50:41.623Z,97644.69
2019-05-22T15:53:14.314Z,97639.73
2019-05-22T15:55:40.570Z,97640.55
2019-05-22T15:58:09.058Z,97640.98
2019-05-22T16:00:38.199Z,97639.84
2019-05-22T16:03:09.356Z,97637.91
2019-05-22T16:05:36.951Z,97637.06
2019-05-22T16:08:04.509Z,97637.31
2019-05-22T16:10:31.365Z,97636.20
2019-05-22T16:12:59.318Z,97625.63
2019-05-22T16:15:27.498Z,97639.45
2019-05-22T16:18:10.322Z,97632.88
2019-05-22T16:20:25.434Z,97634.20
2019-05-22T16:22:53.641Z,97639.63
2019-05-22T16:25:21.834Z,97636.33
2019-05-22T16:27:49.398Z,97629.25
2019-05-22T16:30:17.188Z,97634.92
2019-05-22T16:32:44.393Z,97636.63
2019-05-22T16:35:11.451Z,97629.30
2019-05-22T16:37:38.330Z,97635.27
2019-05-22T16:40:05.224Z,97635.78
2019-05-22T16:42:32.349Z,97634.92
2019-05-22T16:44:59.287Z,97632.75
2019-05-22T16:47:26.782Z,97627.84
2019-05-22T16:49:53.751Z,97634.67
2019-05-22T16:52:23.106Z,97630.27
2019-05-22T16:54:50.451Z,97633.81
2019-05-22T16:57:18.266Z,97634.30
2019-05-22T16:59:45.677Z,97627.72
2019-05-22T17:02:13.396Z,97629.64
2019-05-22T17:04:40.652Z,97630.78
2019-05-22T17:07:08.057Z,97632.93
2019-05-22T17:09:36.735Z,97638.17
2019-05-22T17:12:05.921Z,97643.63
2019-05-22T17:14:32.727Z,97634.45
2019-05-22T17:16:59.839Z,97644.19
2019-05-22T17:19:28.017Z,97647.27
2019-05-22T17:21:55.985Z,97649.73
2019-05-22T17:24:23.160Z,97653.33
2019-05-22T17:26:51.765Z,97656.36
2019-05-22T17:29:18.511Z,97655.28
2019-05-22T17:31:45.373Z,97654.56
2019-05-22T17:34:30.212Z,97652.94
2019-05-22T17:36:57.328Z,97657.63
2019-05-22T17:39:24.998Z,97659.30
2019-05-22T17:41:56.238Z,97660.70
2019-05-22T17:44:21.776Z,97655.80
2019-05-22T17:46:48.598Z,97658.85
2019-05-22T17:49:15.683Z,97662.44
2019-05-22T17:51:42.617Z,97662.44
2019-05-22T17:54:10.279Z,97661.11
2019-05-22T17:56:37.571Z,97665.20
2019-05-22T17:59:04.807Z,97661.66
2019-05-22T18:01:32.842Z,97666.61
2019-05-22T18:03:59.701Z,97660.89
2019-05-22T18:06:26.852Z,97664.17
2019-05-22T18:08:53.980Z,97665.33
2019-05-22T18:11:20.645Z,97674.88
2019-05-22T18:13:57.972Z,97673.52
2019-05-22T18:16:24.636Z,97680.34
2019-05-22T18:18:51.545Z,97671.60
2019-05-22T18:21:18.461Z,97672.71
2019-05-22T18:23:45.909Z,97679.24
2019-05-22T18:26:12.886Z,97680.91
2019-05-22T18:28:39.709Z,97684.78
2019-05-22T18:31:06.400Z,97684.55
2019-05-22T18:33:34.195Z,97687.58
2019-05-22T18:36:00.969Z,97695.84
2019-05-22T18:38:28.007Z,97692.59
2019-05-22T18:40:54.610Z,97697.53
2019-05-22T18:43:23.158Z,97693.47
2019-05-22T18:45:50.089Z,97700.05
2019-05-22T18:48:17.097Z,97700.92
2019-05-22T18:50:44.271Z,97702.33
2019-05-22T18:53:11.075Z,97702.09
2019-05-22T18:55:37.720Z,97710.31
2019-05-22T18:58:04.819Z,97717.14
2019-05-22T19:00:32.776Z,97719.34
2019-05-22T19:02:59.620Z,97718.28
2019-05-22T19:05:28.515Z,97719.70
2019-05-22T19:07:55.404Z,97728.45
2019-05-22T19:10:22.385Z,97730.91
2019-05-22T19:12:49.470Z,97731.23
2019-05-22T19:15:16.360Z,97734.52
2019-05-22T19:17:43.081Z,97735.07
2019-05-22T19:20:10.326Z,97740.27
2019-05-22T19:22:38.181Z,97745.50
2019-05-22T19:25:05.147Z,97747.38
2019-05-22T19:27:31.914Z,97744.16
2019-05-22T19:29:58.747Z,97744.16
2019-05-22T19:32:25.713Z,97756.17
2019-05-22T19:34:52.605Z,97754.00
2019-05-22T19:37:19.351Z,97759.75
2019-05-22T19:39:46.282Z,97758.41
2019-05-22T19:42:14.361Z,97756.27
2019-05-22T19:44:41.481Z,97759.05
2019-05-22T19:47:09.598Z,97763.17
2019-05-22T19:49:37.036Z,97759.95
2019-05-22T19:52:05.552Z,97763.52
2019-05-22T19:54:32.623Z,97767.63
2019-05-22T19:56:59.572Z,97770.13
2019-05-22T19:59:28.438Z,97776.70
2019-05-22T20:01:55.427Z,97777.25
2019-05-22T20:04:22.414Z,97777.28
2019-05-22T20:06:49.327Z,97771.30
2019-05-22T20:09:18.403Z,97775.16
2019-05-22T20:11:45.300Z,97776.53
2019-05-22T20:14:13.929Z,97770.55
2019-05-22T20:16:41.016Z,97776.00
2019-05-22T20:19:09.291Z,97771.09
2019-05-22T20:21:36.317Z,97775.19
2019-05-22T20:24:05.284Z,97777.94
2019-05-22T20:26:32.239Z,97774.16
2019-05-22T20:28:59.505Z,97780.16
2019-05-22T20:31:26.563Z,97778.27
2019-05-22T20:33:53.552Z,97777.20
2019-05-22T20:36:21.881Z,97775.05
2019-05-22T20:38:48.858Z,97775.59
2019-05-22T20:41:16.317Z,97784.33
2019-05-22T20:43:43.233Z,97779.42
2019-05-22T20:46:10.372Z,97783.80
2019-05-22T20:48:37.753Z,97783.82
2019-05-22T20:51:06.504Z,97783.89
2019-05-22T20:53:34.664Z,97784.99
2019-05-22T20:56:02.563Z,97784.20
2019-05-22T20:58:30.210Z,97787.50
2019-05-22T21:00:57.674Z,97792.95
2019-05-22T21:03:25.102Z,97790.52
2019-05-22T21:05:53.752Z,97794.32
2019-05-22T21:08:23.814Z,97794.32
2019-05-22T21:10:51.636Z,97794.05
2019-05-22T21:13:18.581Z,97796.52
2019-05-22T21:15:46.766Z,97796.52
2019-05-22T21:18:15.525Z,97789.98
2019-05-22T21:20:54.273Z,97788.93
2019-05-22T21:23:11.802Z,97793.30
2019-05-22T21:25:38.685Z,97788.76
2019-05-22T21:28:05.619Z,97796.40
2019-05-22T21:30:33.159Z,97798.59
2019-05-22T21:32:59.808Z,97801.05
2019-05-22T21:35:26.582Z,97800.52
2019-05-22T21:37:53.303Z,97799.98
2019-05-22T21:40:22.210Z,97798.65
2019-05-22T21:42:50.430Z,97798.65
2019-05-22T21:45:17.361Z,97797.83
2019-05-22T21:47:45.302Z,97797.30
2019-05-22T21:50:12.789Z,97790.78
2019-05-22T21:52:39.734Z,97791.06
2019-05-22T21:55:09.662Z,97788.64
2019-05-22T21:57:37.681Z,97781.83
2019-05-22T22:00:09.078Z,97785.98
2019-05-22T22:02:37.802Z,97790.08
2019-05-22T22:05:05.444Z,97793.63
2019-05-22T22:07:31.995Z,97793.91
2019-05-22T22:09:58.835Z,97799.91
2019-05-22T22:12:26.283Z,97796.91
2019-05-22T22:14:53.241Z,97794.49
2019-05-22T22:17:20.372Z,97805.39
2019-05-22T22:19:48.572Z,97808.12
2019-05-22T22:22:23.092Z,97804.58
2019-05-22T22:24:50.240Z,97809.48
2019-05-22T22:27:17.821Z,97807.57
2019-05-22T22:29:45.464Z,97810.04
2019-05-22T22:32:12.498Z,97813.32
2019-05-22T22:34:44.854Z,97811.19
2019-05-22T22:37:12.421Z,97816.09
2019-05-22T22:39:41.496Z,97810.11
2019-05-22T22:42:10.969Z,97814.47
2019-05-22T22:44:37.757Z,97813.39
2019-05-22T22:47:10.656Z,97816.13
2019-05-22T22:49:37.975Z,97813.14
2019-05-22T22:52:05.623Z,97814.24
2019-05-22T22:54:33.554Z,97813.44
2019-05-22T22:57:00.218Z,97819.42
2019-05-22T22:59:27.612Z,97819.97
2019-05-22T23:01:56.455Z,97818.36
2019-05-22T23:04:23.959Z,97815.38
2019-05-22T23:06:52.261Z,97812.39
2019-05-22T23:09:19.611Z,97818.14
2019-05-22T23:11:47.744Z,97821.70
2019-05-22T23:14:15.043Z,97822.25
2019-05-22T23:16:42.091Z,97824.98
2019-05-22T23:19:31.391Z,97823.91
2019-05-22T23:22:00.626Z,97822.28
2019-05-22T23:24:28.964Z,97825.55
2019-05-22T23:26:56.462Z,97827.20
2019-05-22T23:29:23.325Z,97823.13
2019-05-22T23:31:50.269Z,97825.06
2019-05-22T23:34:17.698Z,97826.70
2019-05-22T23:36:44.555Z,97830.52
2019-05-22T23:39:11.974Z,97834.33
2019-05-22T23:41:40.509Z,97830.81
2019-05-22T23:44:10.409Z,97827.55
2019-05-22T23:46:37.579Z,97825.90
2019-05-22T23:49:04.355Z,97821.59
2019-05-22T23:51:31.677Z,97824.59
2019-05-22T23:54:01.829Z,97825.41
2019-05-22T23:56:28.585Z,97824.33
2019-05-22T23:58:55.447Z,97824.34
